Time;durP1;ratioP1;P1;durP2;ratioP2;P2;SDS_P1;SDS_P2;PMS_P1;PMS_P2;Temp;Humidity;BMP_temperature;BMP_pressure;BME280_temperature;BME280_humidity;BME280_pressure;Samples;Min_cycle;Max_cycle;Signal;HPM_P1;HPM_P2
2021/07/12 00:00:09;;;;;;;7.65;7.00;;;;;;;20.54;96.96;100770.16;3573575;40;20077;-49
2021/07/12 00:02:36;;;;;;;7.82;7.13;;;;;;;20.46;97.77;100769.38;3573802;40;20085;-49
2021/07/12 00:05:05;;;;;;;7.72;7.13;;;;;;;20.34;98.35;100766.97;3573746;40;20081;-50
2021/07/12 00:07:32;;;;;;;8.35;7.60;;;;;;;20.55;97.87;100769.28;3569876;40;20068;-50
2021/07/12 00:10:00;;;;;;;7.45;6.85;;;;;;;20.29;99.51;100780.03;3573464;40;20084;-50
2021/07/12 00:12:27;;;;;;;8.45;7.75;;;;;;;19.78;100.00;100777.16;3573575;40;20387;-51
2021/07/12 00:14:54;;;;;;;8.60;7.80;;;;;;;19.61;100.00;100767.81;3573655;40;20061;-51
2021/07/12 00:17:21;;;;;;;7.85;7.15;;;;;;;19.66;100.00;100776.44;3573661;40;20724;-52
2021/07/12 00:19:48;;;;;;;8.52;7.72;;;;;;;19.76;100.00;100770.25;3573566;40;20142;-49
2021/07/12 00:22:15;;;;;;;7.88;7.20;;;;;;;19.69;100.00;100777.25;3573619;40;20172;-54
2021/07/12 00:24:42;;;;;;;8.80;7.97;;;;;;;19.46;100.00;100782.66;3573981;40;20080;-48
2021/07/12 00:27:09;;;;;;;8.35;7.75;;;;;;;19.52;100.00;100776.53;3573373;40;20427;-56
2021/07/12 00:29:36;;;;;;;8.48;7.88;;;;;;;20.00;100.00;100775.16;3573291;40;20085;-49
2021/07/12 00:32:03;;;;;;;8.45;7.75;;;;;;;19.76;100.00;100771.09;3573311;40;20073;-52
2021/07/12 00:34:31;;;;;;;8.45;7.63;;;;;;;20.25;99.74;100769.69;3569523;40;20064;-50
2021/07/12 00:36:58;;;;;;;8.02;7.32;;;;;;;19.88;100.00;100762.31;3573507;40;20450;-50
2021/07/12 00:39:25;;;;;;;8.18;7.57;;;;;;;20.02;100.00;100762.16;3573182;40;20093;-51
2021/07/12 00:41:53;;;;;;;8.20;7.55;;;;;;;19.97;100.00;100762.22;3573632;40;20357;-49
2021/07/12 00:44:20;;;;;;;9.30;8.60;;;;;;;19.64;100.00;100753.03;3573308;40;20117;-50
2021/07/12 00:46:47;;;;;;;8.38;7.78;;;;;;;19.88;100.00;100754.53;3573533;40;20342;-51
2021/07/12 00:49:14;;;;;;;9.00;8.20;;;;;;;19.94;100.00;100754.44;3573468;40;20112;-49
2021/07/12 00:51:41;;;;;;;8.90;8.20;;;;;;;19.56;100.00;100755.69;3573499;40;20110;-49
2021/07/12 00:54:08;;;;;;;8.35;7.55;;;;;;;19.80;100.00;100743.34;3573237;40;20053;-49
2021/07/12 00:56:35;;;;;;;8.52;7.90;;;;;;;20.04;100.00;100747.41;3573355;40;20483;-51
2021/07/12 00:59:04;;;;;;;8.40;7.80;;;;;;;20.20;100.00;100748.94;3573190;40;20100;-49
2021/07/12 01:01:31;;;;;;;8.70;8.00;;;;;;;19.95;100.00;100748.38;3569146;40;20092;-53
2021/07/12 01:03:58;;;;;;;8.68;7.97;;;;;;;19.95;100.00;100756.16;3573378;40;20052;-48
2021/07/12 01:06:26;;;;;;;9.15;8.45;;;;;;;20.08;100.00;100752.53;3573149;40;20085;-50
2021/07/12 01:08:53;;;;;;;8.85;8.25;;;;;;;20.03;100.00;100748.28;3573051;40;20051;-51
2021/07/12 01:11:37;;;;;;;8.98;8.27;;;;;;;20.09;100.00;100751.66;3573060;40;20053;-51
2021/07/12 01:14:38;;;;;;;10.63;9.82;;;;;;;19.68;100.00;100744.34;3573089;40;20113;-51
2021/07/12 01:17:21;;;;;;;10.02;9.32;;;;;;;19.37;100.00;100748.13;3573163;40;20103;-49
2021/07/12 01:20:10;;;;;;;10.45;9.52;;;;;;;19.24;100.00;100757.75;3573156;40;20069;-49
2021/07/12 01:22:50;;;;;;;9.38;8.57;;;;;;;19.37;100.00;100756.75;3573143;40;20103;-51
2021/07/12 01:25:19;;;;;;;9.00;8.20;;;;;;;19.44;100.00;100761.00;3572877;40;20076;-48
2021/07/12 01:28:37;;;;;;;9.50;8.73;;;;;;;19.29;100.00;100753.38;3573012;40;20608;-52
2021/07/12 01:31:33;;;;;;;10.05;9.15;;;;;;;19.26;100.00;100743.00;3550236;40;20092;-51
2021/07/12 01:34:14;;;;;;;10.20;9.27;;;;;;;19.36;100.00;100751.56;3572779;40;20085;-49
2021/07/12 01:36:51;;;;;;;10.48;9.48;;;;;;;19.43;100.00;100748.91;3573265;40;20052;-54
2021/07/12 01:39:28;;;;;;;9.60;8.80;;;;;;;19.50;100.00;100741.91;3572851;40;20188;-48
2021/07/12 01:42:06;;;;;;;10.00;9.10;;;;;;;19.41;100.00;100748.03;3573213;40;20094;-51
2021/07/12 01:44:44;;;;;;;10.18;9.38;;;;;;;19.33;100.00;100739.50;3570143;40;20308;-53
2021/07/12 01:47:49;;;;;;;10.15;9.27;;;;;;;19.31;100.00;100741.22;3574758;40;20081;-48
2021/07/12 01:50:31;;;;;;;10.93;9.93;;;;;;;19.24;100.00;100735.25;3574289;40;20068;-51
2021/07/12 01:53:13;;;;;;;10.00;9.20;;;;;;;19.30;100.00;100731.72;3574790;40;20089;-53
2021/07/12 01:55:58;;;;;;;10.95;10.02;;;;;;;19.19;100.00;100733.56;3571028;40;20063;-52
2021/07/12 01:58:28;;;;;;;11.63;10.65;;;;;;;19.05;100.00;100734.53;3574130;40;20045;-50
2021/07/12 02:00:55;;;;;;;11.98;11.10;;;;;;;19.10;100.00;100736.25;3574139;40;20056;-52
2021/07/12 02:03:24;;;;;;;11.82;10.80;;;;;;;19.26;100.00;100727.41;3574270;40;20100;-49
2021/07/12 02:05:56;;;;;;;12.23;11.23;;;;;;;19.16;100.00;100726.66;3574585;40;20075;-52
2021/07/12 02:08:25;;;;;;;12.25;11.15;;;;;;;19.11;100.00;100725.84;3574102;40;20146;-49
2021/07/12 02:10:53;;;;;;;11.77;10.73;;;;;;;19.15;100.00;100719.75;3574692;40;20099;-52
2021/07/12 02:13:21;;;;;;;11.88;10.88;;;;;;;19.11;100.00;100718.03;3574754;40;20304;-51
2021/07/12 02:15:51;;;;;;;11.52;10.63;;;;;;;19.13;100.00;100720.63;3574718;40;20716;-51
2021/07/12 02:18:23;;;;;;;12.07;11.02;;;;;;;19.15;100.00;100719.75;3574344;40;20048;-51
2021/07/12 02:20:52;;;;;;;11.43;10.63;;;;;;;19.33;100.00;100721.31;3574248;40;20077;-55
2021/07/12 02:23:21;;;;;;;10.82;10.10;;;;;;;19.50;100.00;100721.97;3574099;40;20051;-51
2021/07/12 02:25:49;;;;;;;11.75;10.65;;;;;;;19.26;100.00;100711.84;3574593;40;20097;-50
2021/07/12 02:28:17;;;;;;;11.93;10.93;;;;;;;19.21;100.00;100716.22;3574210;40;20093;-53
2021/07/12 02:30:45;;;;;;;11.75;10.88;;;;;;;19.41;100.00;100718.63;3574504;40;20068;-51
2021/07/12 02:33:15;;;;;;;10.43;9.63;;;;;;;19.78;100.00;100699.22;3574134;40;20123;-50
2021/07/12 02:35:43;;;;;;;11.50;10.60;;;;;;;19.33;100.00;100701.38;3574246;40;20073;-51
2021/07/12 02:38:11;;;;;;;11.68;10.68;;;;;;;19.20;100.00;100699.78;3573722;40;20080;-50
2021/07/12 02:40:38;;;;;;;11.63;10.73;;;;;;;19.16;100.00;100700.69;3574100;40;20063;-51
2021/07/12 02:43:07;;;;;;;11.20;10.30;;;;;;;19.05;100.00;100702.53;3574227;40;20162;-52
2021/07/12 02:45:37;;;;;;;12.63;11.63;;;;;;;19.07;100.00;100698.19;3574272;40;20551;-53
2021/07/12 02:48:05;;;;;;;12.25;11.15;;;;;;;19.07;100.00;100693.84;3573998;40;20061;-53
2021/07/12 02:50:33;;;;;;;11.15;10.25;;;;;;;19.11;100.00;100706.81;3574341;40;20810;-49
2021/07/12 02:53:35;;;;;;;12.20;11.15;;;;;;;19.08;100.00;100703.34;3574193;40;20352;-52
2021/07/12 02:56:02;;;;;;;13.13;12.02;;;;;;;19.00;100.00;100699.97;3573754;40;20055;-53
2021/07/12 02:58:30;;;;;;;12.95;11.95;;;;;;;19.06;100.00;100699.91;3570019;40;20141;-54
2021/07/12 03:01:03;;;;;;;12.73;11.77;;;;;;;18.93;100.00;100695.69;3573924;40;20045;-49
2021/07/12 03:03:32;;;;;;;13.43;12.43;;;;;;;18.83;100.00;100692.31;3570281;40;20053;-52
2021/07/12 03:06:06;;;;;;;13.93;12.77;;;;;;;18.87;100.00;100693.16;3573931;40;20112;-54
2021/07/12 03:08:41;;;;;;;13.90;12.73;;;;;;;18.89;100.00;100687.97;3573914;40;20093;-50
2021/07/12 03:11:13;;;;;;;14.57;13.37;;;;;;;18.80;100.00;100689.75;3573833;40;20063;-49
2021/07/12 03:14:13;;;;;;;13.65;12.45;;;;;;;18.82;100.00;100694.94;3573848;40;20045;-49
2021/07/12 03:16:42;;;;;;;15.07;13.63;;;;;;;18.68;100.00;100701.94;3566218;40;20049;-49
2021/07/12 03:19:14;;;;;;;13.48;12.38;;;;;;;19.13;100.00;100707.63;3573829;40;20327;-50
2021/07/12 03:21:45;;;;;;;13.20;12.20;;;;;;;19.02;100.00;100702.56;3574018;40;20053;-52
2021/07/12 03:24:13;;;;;;;13.35;12.25;;;;;;;18.98;100.00;100701.72;3573710;40;20089;-50
2021/07/12 03:26:43;;;;;;;13.88;12.70;;;;;;;19.34;100.00;100703.09;3574076;40;20081;-51
2021/07/12 03:29:13;;;;;;;12.80;11.80;;;;;;;19.55;100.00;100699.44;3573945;40;20081;-50
2021/07/12 03:31:42;;;;;;;13.38;12.07;;;;;;;19.58;100.00;100691.59;3573707;40;20455;-51
2021/07/12 03:34:12;;;;;;;13.32;12.23;;;;;;;19.32;100.00;100691.03;3573734;40;20084;-52
2021/07/12 03:36:41;;;;;;;13.98;12.63;;;;;;;19.00;100.00;100694.78;3573612;40;20142;-55
2021/07/12 03:39:08;;;;;;;13.80;12.60;;;;;;;19.00;100.00;100687.00;3573498;40;20790;-49
2021/07/12 03:41:37;;;;;;;13.10;11.98;;;;;;;18.99;100.00;100682.66;3573571;40;20112;-50
2021/07/12 03:44:07;;;;;;;13.57;12.48;;;;;;;19.04;100.00;100680.91;3573589;40;20089;-53
2021/07/12 03:46:40;;;;;;;13.93;12.68;;;;;;;19.02;100.00;100695.63;3573778;40;20048;-49
2021/07/12 03:49:15;;;;;;;14.40;13.00;;;;;;;18.91;100.00;100701.78;3573994;40;20049;-54
2021/07/12 03:51:46;;;;;;;12.65;11.65;;;;;;;19.14;100.00;100711.97;3573536;40;20485;-51
2021/07/12 03:54:15;;;;;;;12.45;11.43;;;;;;;19.49;100.00;100717.66;3573860;40;20065;-50
2021/07/12 03:56:42;;;;;;;14.35;13.10;;;;;;;19.46;100.00;100716.81;3573624;40;20085;-53
2021/07/12 03:59:10;;;;;;;14.18;13.07;;;;;;;19.18;100.00;100721.44;3573515;40;20096;-51
2021/07/12 04:01:37;;;;;;;14.43;12.93;;;;;;;19.47;100.00;100710.78;3573463;40;20109;-49
2021/07/12 04:04:04;;;;;;;14.80;13.60;;;;;;;19.53;100.00;100705.50;3573511;40;20588;-55
2021/07/12 04:06:31;;;;;;;17.42;15.98;;;;;;;18.88;100.00;100702.66;3573242;40;20081;-52
2021/07/12 04:08:59;;;;;;;19.80;18.08;;;;;;;18.69;100.00;100704.56;3573563;40;20077;-51
2021/07/12 04:11:34;;;;;;;20.45;18.67;;;;;;;18.92;100.00;100699.19;3572747;40;20085;-49
2021/07/12 04:14:05;;;;;;;23.35;21.15;;;;;;;18.53;100.00;100698.59;3573153;40;20048;-50
2021/07/12 04:16:47;;;;;;;19.85;18.05;;;;;;;19.07;100.00;100700.78;3569348;40;20092;-50
2021/07/12 04:19:20;;;;;;;22.38;20.38;;;;;;;18.66;100.00;100688.97;3573530;40;20045;-53
2021/07/12 04:21:51;;;;;;;23.95;21.55;;;;;;;18.52;100.00;100689.06;3573414;40;20037;-51
2021/07/12 04:24:23;;;;;;;24.08;21.88;;;;;;;18.54;100.00;100686.47;3573239;40;20061;-53
2021/07/12 04:26:54;;;;;;;23.13;20.70;;;;;;;18.79;100.00;100688.03;3573453;40;20049;-53
2021/07/12 04:29:32;;;;;;;22.13;20.10;;;;;;;18.91;100.00;100692.28;3573209;40;20502;-54
2021/07/12 04:32:03;;;;;;;21.10;19.10;;;;;;;18.85;100.00;100686.25;3573540;40;20049;-51
2021/07/12 04:34:31;;;;;;;21.40;19.60;;;;;;;19.03;100.00;100689.56;3569587;40;20037;-52
2021/07/12 04:37:03;;;;;;;24.92;22.50;;;;;;;18.71;100.00;100684.63;3573417;40;20109;-54
2021/07/12 04:39:31;;;;;;;25.25;22.88;;;;;;;18.70;100.00;100677.72;3573458;40;20435;-52
2021/07/12 04:42:02;;;;;;;24.75;22.33;;;;;;;18.76;100.00;100674.22;3573651;40;20134;-57
2021/07/12 04:44:31;;;;;;;24.70;22.45;;;;;;;18.75;100.00;100682.88;3569282;40;20045;-55
2021/07/12 04:47:09;;;;;;;28.75;25.92;;;;;;;18.50;100.00;100690.81;3573696;40;20096;-50
2021/07/12 04:49:39;;;;;;;27.08;24.38;;;;;;;18.61;100.00;100676.91;3573420;40;20048;-53
2021/07/12 04:52:09;;;;;;;26.98;24.40;;;;;;;18.61;100.00;100676.91;3573462;40;20049;-57
2021/07/12 04:54:39;;;;;;;26.60;24.30;;;;;;;18.68;100.00;100678.59;3572728;40;20060;-53
2021/07/12 04:57:06;;;;;;;25.05;22.83;;;;;;;18.81;100.00;100680.22;3571022;40;20056;-50
2021/07/12 04:59:38;;;;;;;23.77;21.40;;;;;;;18.83;100.00;100674.16;3573111;40;20142;-51
2021/07/12 05:02:20;;;;;;;23.50;21.42;;;;;;;18.97;100.00;100670.59;3573100;40;20068;-52
2021/07/12 05:04:50;;;;;;;25.95;23.55;;;;;;;18.76;100.00;100672.47;3573003;40;20072;-51
2021/07/12 05:07:17;;;;;;;22.73;20.67;;;;;;;18.93;100.00;100668.91;3570967;40;20058;-53
2021/07/12 05:09:50;;;;;;;25.80;23.50;;;;;;;18.84;100.00;100664.66;3572592;40;20348;-55
2021/07/12 05:12:29;;;;;;;23.20;20.90;;;;;;;19.40;100.00;100658.03;3573068;40;20049;-52
2021/07/12 05:14:57;;;;;;;23.45;21.35;;;;;;;19.41;100.00;100657.16;3572928;40;20055;-52
2021/07/12 05:17:28;;;;;;;25.23;22.92;;;;;;;19.15;100.00;100646.19;3573015;40;20369;-56
2021/07/12 05:19:56;;;;;;;23.92;21.73;;;;;;;19.15;100.00;100638.41;3572055;40;20077;-51
2021/07/12 05:22:26;;;;;;;24.25;22.05;;;;;;;19.01;100.00;100654.13;3572438;40;20056;-53
2021/07/12 05:24:54;;;;;;;29.27;26.42;;;;;;;18.78;100.00;100659.53;3572930;40;20057;-49
2021/07/12 05:27:21;;;;;;;29.20;26.52;;;;;;;18.79;100.00;100672.47;3572816;40;20060;-52
2021/07/12 05:29:48;;;;;;;33.05;29.85;;;;;;;18.73;100.00;100692.44;3572996;40;20037;-54
2021/07/12 05:32:16;;;;;;;30.10;27.33;;;;;;;18.74;100.00;100694.13;3573261;40;20060;-51
2021/07/12 05:34:43;;;;;;;31.75;28.75;;;;;;;18.80;100.00;100691.47;3573033;40;20069;-54
2021/07/12 05:37:10;;;;;;;31.35;27.77;;;;;;;18.85;100.00;100692.31;3572869;40;20097;-52
2021/07/12 05:39:37;;;;;;;29.13;26.42;;;;;;;19.00;100.00;100683.56;3573170;40;20443;-53
2021/07/12 05:42:05;;;;;;;27.45;24.98;;;;;;;19.20;100.00;100686.81;3572831;40;20069;-52
2021/07/12 05:44:32;;;;;;;27.42;24.80;;;;;;;19.19;100.00;100687.69;3572836;40;20049;-54
2021/07/12 05:47:01;;;;;;;26.65;24.25;;;;;;;19.14;100.00;100686.88;3572554;40;20112;-55
2021/07/12 05:49:28;;;;;;;32.42;23.30;;;;;;;19.66;100.00;100681.16;3572462;40;20045;-50
2021/07/12 05:51:55;;;;;;;24.85;22.73;;;;;;;19.89;100.00;100677.41;3573027;40;20558;-55
2021/07/12 05:54:22;;;;;;;24.33;22.13;;;;;;;19.68;100.00;100675.94;3572775;40;20103;-55
2021/07/12 05:56:50;;;;;;;25.52;23.23;;;;;;;19.73;100.00;100676.72;3572660;40;20059;-51
2021/07/12 05:59:17;;;;;;;25.73;23.48;;;;;;;19.36;100.00;100673.66;3572715;40;20068;-52
2021/07/12 06:01:50;;;;;;;24.60;22.13;;;;;;;19.69;100.00;100675.94;3572422;40;20034;-50
2021/07/12 06:04:18;;;;;;;23.83;21.88;;;;;;;19.79;100.00;100676.69;3570574;40;20064;-51
2021/07/12 06:06:48;;;;;;;23.42;21.38;;;;;;;19.71;100.00;100674.16;3572154;40;20064;-52
2021/07/12 06:09:16;;;;;;;26.73;24.33;;;;;;;19.95;100.00;100672.97;3571642;40;20089;-48
2021/07/12 06:11:43;;;;;;;26.63;24.23;;;;;;;20.24;100.00;100682.13;3571977;40;20111;-53
2021/07/12 06:14:11;;;;;;;25.88;23.48;;;;;;;20.41;100.00;100687.94;3571939;40;20081;-51
2021/07/12 06:16:38;;;;;;;25.35;22.98;;;;;;;20.22;100.00;100686.50;3572113;40;20101;-53
2021/07/12 06:19:06;;;;;;;23.77;21.80;;;;;;;20.14;100.00;100689.19;3572240;40;20069;-53
2021/07/12 06:21:34;;;;;;;23.58;21.63;;;;;;;20.30;100.00;100692.44;3572225;40;20049;-53
2021/07/12 06:24:02;;;;;;;24.58;22.38;;;;;;;20.56;100.00;100686.88;3572118;40;20060;-48
2021/07/12 06:26:30;;;;;;;22.17;20.17;;;;;;;20.66;100.00;100688.47;3568005;40;20053;-50
2021/07/12 06:28:59;;;;;;;24.60;22.45;;;;;;;20.94;100.00;100685.38;3572045;40;20060;-52
2021/07/12 06:31:26;;;;;;;22.52;20.73;;;;;;;20.84;100.00;100687.28;3572799;40;20057;-48
2021/07/12 06:33:55;;;;;;;22.65;20.55;;;;;;;20.90;100.00;100691.56;3573531;40;20581;-55
2021/07/12 06:36:24;;;;;;;22.38;20.38;;;;;;;21.24;100.00;100684.84;3573389;40;20057;-53
2021/07/12 06:38:52;;;;;;;22.15;20.15;;;;;;;21.54;100.00;100685.22;3573606;40;20069;-51
2021/07/12 06:41:20;;;;;;;22.42;20.38;;;;;;;21.73;100.00;100683.94;3573183;40;20053;-54
2021/07/12 06:43:48;;;;;;;21.23;19.42;;;;;;;21.64;100.00;100678.06;3572333;40;20055;-53
2021/07/12 06:46:16;;;;;;;22.35;20.45;;;;;;;21.15;100.00;100672.00;3573353;40;20350;-52
2021/07/12 06:48:44;;;;;;;19.50;17.80;;;;;;;21.90;100.00;100674.91;3573304;40;20191;-51
2021/07/12 06:51:13;;;;;;;19.60;17.88;;;;;;;21.74;100.00;100664.81;3572705;40;20048;-53
2021/07/12 06:53:42;;;;;;;19.02;17.23;;;;;;;22.03;100.00;100666.78;3573568;40;20060;-54
2021/07/12 06:56:09;;;;;;;18.00;16.38;;;;;;;22.41;100.00;100659.88;3573455;40;20049;-54
2021/07/12 06:58:37;;;;;;;16.98;15.57;;;;;;;23.33;100.00;100662.78;3573285;40;20415;-53
2021/07/12 07:01:05;;;;;;;17.48;15.85;;;;;;;23.09;100.00;100672.97;3573399;40;20077;-54
2021/07/12 07:03:35;;;;;;;15.85;14.60;;;;;;;23.25;100.00;100664.72;3573494;40;20100;-54
2021/07/12 07:06:05;;;;;;;15.40;14.20;;;;;;;23.53;98.67;100663.09;3573270;40;20057;-49
2021/07/12 07:08:33;;;;;;;15.00;13.80;;;;;;;23.29;99.13;100655.91;3534954;40;1550893;-58
2021/07/12 07:11:01;;;;;;;16.55;14.95;;;;;;;23.47;96.87;100657.16;3573996;40;20435;-51
2021/07/12 07:13:28;;;;;;;17.05;15.57;;;;;;;23.82;95.76;100656.19;3573598;40;20048;-52
2021/07/12 07:15:56;;;;;;;14.93;13.65;;;;;;;23.95;94.72;100659.31;3573740;40;20119;-53
2021/07/12 07:18:24;;;;;;;15.43;14.13;;;;;;;23.80;98.88;100650.13;3573785;40;20100;-54
2021/07/12 07:20:52;;;;;;;15.65;14.25;;;;;;;23.36;94.63;100652.25;3573193;40;20064;-52
2021/07/12 07:23:20;;;;;;;15.13;13.93;;;;;;;23.97;95.04;100650.50;3573708;40;20057;-55
2021/07/12 07:25:47;;;;;;;13.38;12.18;;;;;;;24.33;92.92;100645.88;3573918;40;20061;-53
2021/07/12 07:28:17;;;;;;;15.25;14.00;;;;;;;23.85;92.82;100643.88;3573663;40;20067;-53
2021/07/12 07:30:45;;;;;;;14.68;13.52;;;;;;;24.07;90.54;100645.84;3573461;40;20065;-54
2021/07/12 07:33:16;;;;;;;13.43;12.32;;;;;;;24.45;90.45;100646.41;3573556;40;20045;-53
2021/07/12 07:35:44;;;;;;;12.98;12.02;;;;;;;24.72;90.11;100649.88;3573843;40;20048;-51
2021/07/12 07:38:12;;;;;;;12.32;11.23;;;;;;;24.86;87.02;100647.66;3573811;40;20061;-54
2021/07/12 07:40:40;;;;;;;11.25;10.25;;;;;;;24.72;85.98;100642.03;3573764;40;20434;-54
2021/07/12 07:43:10;;;;;;;11.68;10.75;;;;;;;24.46;87.56;100638.53;3573041;40;20053;-53
2021/07/12 07:45:37;;;;;;;10.98;9.98;;;;;;;23.89;89.32;100632.41;3573592;40;20053;-53
2021/07/12 07:48:06;;;;;;;11.93;10.93;;;;;;;23.82;91.01;100630.03;3573565;40;20040;-55
2021/07/12 07:50:40;;;;;;;11.23;10.07;;;;;;;24.66;90.23;100627.38;3573500;40;20049;-55
2021/07/12 07:53:08;;;;;;;10.00;9.27;;;;;;;24.30;87.22;100627.63;3573773;40;20064;-51
2021/07/12 07:55:38;;;;;;;9.48;8.82;;;;;;;24.13;86.00;100615.13;3573558;40;20084;-54
2021/07/12 07:58:05;;;;;;;10.32;9.32;;;;;;;23.58;90.29;100608.91;3573381;40;20084;-53
2021/07/12 08:00:34;;;;;;;10.10;9.23;;;;;;;23.66;90.01;100616.53;3573404;40;20089;-55
2021/07/12 08:03:04;;;;;;;10.15;9.35;;;;;;;24.22;89.97;100616.59;3573661;40;20065;-54
2021/07/12 08:05:33;;;;;;;10.95;10.00;;;;;;;24.41;87.50;100616.03;3569512;40;20411;-54
2021/07/12 08:08:02;;;;;;;10.45;9.65;;;;;;;24.67;87.57;100617.75;3573276;40;20057;-54
2021/07/12 08:10:31;;;;;;;10.10;9.30;;;;;;;24.83;85.58;100611.09;3569818;40;20049;-54
2021/07/12 08:13:07;;;;;;;9.68;8.93;;;;;;;25.07;83.57;100612.88;3573518;40;20049;-57
2021/07/12 08:15:35;;;;;;;10.07;9.40;;;;;;;24.97;84.70;100614.09;3569933;40;20060;-54
2021/07/12 08:18:04;;;;;;;9.63;8.93;;;;;;;24.61;86.55;100617.06;3573443;40;20102;-52
2021/07/12 08:20:33;;;;;;;9.73;8.93;;;;;;;24.22;86.88;100616.59;3573513;40;20076;-57
2021/07/12 08:23:02;;;;;;;9.45;8.75;;;;;;;24.36;84.74;100617.03;3573744;40;20065;-54
2021/07/12 08:25:31;;;;;;;9.07;8.27;;;;;;;24.29;83.46;100610.22;3569674;40;20044;-49
2021/07/12 08:27:59;;;;;;;9.30;8.60;;;;;;;24.12;86.96;100604.66;3573512;40;20064;-52
2021/07/12 08:30:32;;;;;;;9.55;8.77;;;;;;;24.43;86.19;100614.19;3573458;40;20061;-52
2021/07/12 08:33:00;;;;;;;8.43;7.82;;;;;;;25.34;83.20;100612.81;3573495;40;20138;-56
2021/07/12 08:35:31;;;;;;;9.40;8.65;;;;;;;25.31;83.19;100611.13;3573568;40;20421;-53
2021/07/12 08:37:59;;;;;;;9.02;8.43;;;;;;;26.15;78.06;100607.91;3573367;40;20045;-53
2021/07/12 08:40:28;;;;;;;9.93;9.23;;;;;;;25.47;78.67;100606.19;3573551;40;20060;-55
2021/07/12 08:42:57;;;;;;;10.55;9.85;;;;;;;24.84;82.75;100599.72;3573260;40;20092;-54
2021/07/12 08:45:28;;;;;;;11.88;10.77;;;;;;;24.56;83.56;100603.28;3573203;40;20407;-54
2021/07/12 08:47:55;;;;;;;11.35;10.55;;;;;;;25.30;83.37;100608.59;3573554;40;20100;-50
2021/07/12 08:50:32;;;;;;;11.50;10.30;;;;;;;24.62;83.85;100610.91;3573333;40;20134;-52
2021/07/12 08:53:08;;;;;;;12.23;11.23;;;;;;;25.24;83.70;100614.91;3573288;40;20055;-51
2021/07/12 08:55:55;;;;;;;12.13;11.02;;;;;;;25.24;81.86;100616.69;3569980;40;20414;-54
2021/07/12 08:58:42;;;;;;;11.05;10.25;;;;;;;25.47;84.32;100605.31;3573353;40;20049;-48
2021/07/12 09:01:10;;;;;;;11.18;10.35;;;;;;;26.03;79.10;100597.09;3573032;40;20041;-52
2021/07/12 09:04:00;;;;;;;11.40;10.45;;;;;;;25.97;77.12;100603.41;3573349;40;20064;-47
2021/07/12 09:06:36;;;;;;;9.95;9.25;;;;;;;25.95;76.40;100597.38;3569473;40;20049;-50
2021/07/12 09:09:20;;;;;;;9.88;9.18;;;;;;;25.23;76.37;100612.31;3572917;40;20041;-52
2021/07/12 09:11:58;;;;;;;10.40;9.57;;;;;;;25.07;78.42;100594.53;3573142;40;20427;-52
2021/07/12 09:14:34;;;;;;;10.15;9.45;;;;;;;26.07;73.59;100596.91;3573346;40;20671;-54
2021/07/12 09:17:05;;;;;;;10.15;9.38;;;;;;;25.78;76.61;100591.94;3573192;40;20065;-52
2021/07/12 09:19:42;;;;;;;10.30;9.50;;;;;;;26.25;77.00;100599.69;3569077;40;20426;-54
2021/07/12 09:22:12;;;;;;;10.30;9.60;;;;;;;26.39;71.02;100598.22;3573035;40;20126;-51
2021/07/12 09:25:00;;;;;;;11.30;10.30;;;;;;;26.11;72.14;100588.00;3573228;40;20053;-53
2021/07/12 09:27:29;;;;;;;11.52;10.52;;;;;;;25.80;73.34;100593.59;3572829;40;20045;-49
2021/07/12 09:30:06;;;;;;;10.55;9.75;;;;;;;26.26;73.03;100594.38;3572821;40;20103;-53
2021/07/12 09:32:46;;;;;;;10.50;9.75;;;;;;;26.09;72.15;100589.81;3572887;40;20707;-50
2021/07/12 09:35:27;;;;;;;10.75;9.85;;;;;;;25.46;74.35;100580.88;3572990;40;20064;-50
2021/07/12 09:38:07;;;;;;;11.48;10.48;;;;;;;25.95;73.87;100575.53;3572778;40;20041;-51
2021/07/12 09:40:38;;;;;;;10.52;9.55;;;;;;;26.13;71.93;100572.16;3572903;40;20475;-52
2021/07/12 09:43:31;;;;;;;9.98;9.10;;;;;;;26.51;71.78;100570.59;3573071;40;20598;-51
2021/07/12 09:45:58;;;;;;;19.55;9.43;;;;;;;28.04;64.37;100568.09;3573469;40;20570;-49
2021/07/12 09:48:27;;;;;;;9.65;8.95;;;;;;;27.89;63.92;100567.91;3572436;40;20053;-51
2021/07/12 09:51:04;;;;;;;9.60;8.90;;;;;;;27.35;67.77;100572.16;3571943;40;20158;-52
2021/07/12 09:53:39;;;;;;;10.35;9.55;;;;;;;26.89;68.28;100575.97;3569087;40;20057;-51
2021/07/12 09:56:25;;;;;;;9.90;9.10;;;;;;;26.07;69.66;100577.69;3572668;40;20057;-54
2021/07/12 09:59:04;;;;;;;;;;;;;;;25.91;71.10;100561.69;3573347;40;20079;-51
2021/07/12 10:01:45;;;;;;;10.13;9.32;;;;;;;25.47;73.98;100559.00;3568858;40;19937;-49
2021/07/12 10:04:24;;;;;;;10.13;9.32;;;;;;;25.98;71.05;100567.56;3572601;40;20312;-54
2021/07/12 10:07:02;;;;;;;10.02;9.23;;;;;;;25.59;75.66;100561.13;3574122;40;20049;-54
2021/07/12 10:09:41;;;;;;;10.70;9.52;;;;;;;25.56;76.77;100565.63;3570255;40;20049;-53
2021/07/12 10:12:12;;;;;;;11.82;10.68;;;;;;;25.58;76.45;100564.69;3574200;40;20056;-52
2021/07/12 10:14:51;;;;;;;11.10;10.10;;;;;;;25.86;73.55;100566.25;3574064;40;20064;-49
2021/07/12 10:17:33;;;;;;;10.68;9.63;;;;;;;26.44;72.21;100558.66;3573957;40;20121;-49
2021/07/12 10:20:23;;;;;;;10.60;9.80;;;;;;;25.86;72.52;100559.22;3574110;40;20049;-49
2021/07/12 10:23:00;;;;;;;10.40;9.60;;;;;;;25.55;72.68;100559.53;3571779;40;20319;-53
2021/07/12 10:25:46;;;;;;;10.88;9.98;;;;;;;25.80;72.77;100553.38;3570606;40;20126;-53
2021/07/12 10:28:37;;;;;;;11.50;10.32;;;;;;;25.80;77.36;100548.16;3574095;40;20045;-52
2021/07/12 10:31:52;;;;;;;10.18;9.48;;;;;;;26.62;69.00;100550.00;3574114;40;20071;-52
2021/07/12 10:34:28;;;;;;;10.95;10.15;;;;;;;26.46;69.71;100550.72;3572803;40;20063;-52
2021/07/12 10:37:30;;;;;;;10.30;9.50;;;;;;;26.51;70.58;100543.50;3574248;40;20041;-50
2021/07/12 10:39:57;;;;;;;10.65;9.88;;;;;;;26.86;68.10;100549.84;3573847;40;20061;-49
2021/07/12 10:42:50;;;;;;;9.60;8.80;;;;;;;27.38;66.42;100551.00;3573703;40;20041;-48
2021/07/12 10:45:59;;;;;;;10.13;9.40;;;;;;;28.09;65.89;100543.22;3573878;40;20132;-49
2021/07/12 10:48:40;;;;;;;8.82;8.13;;;;;;;31.03;53.91;100540.16;3573479;40;20044;-51
2021/07/12 10:51:37;;;;;;;8.48;7.85;;;;;;;33.26;46.60;100543.00;3573760;40;20045;-52
2021/07/12 10:54:22;;;;;;;9.00;8.13;;;;;;;32.34;49.18;100535.25;3573920;40;20057;-49
2021/07/12 10:57:00;;;;;;;8.35;7.65;;;;;;;31.18;52.16;100531.25;3571458;40;20063;-52
2021/07/12 10:59:32;;;;;;;8.43;7.82;;;;;;;31.77;49.92;100524.91;3573829;40;20057;-51
2021/07/12 11:02:41;;;;;;;9.27;8.17;;;;;;;32.00;49.20;100537.53;3573585;40;20056;-51
2021/07/12 11:05:23;;;;;;;8.57;8.02;;;;;;;30.64;53.05;100532.84;3573334;40;20275;-51
2021/07/12 11:07:58;;;;;;;9.52;8.63;;;;;;;30.44;55.15;100534.88;3573757;40;20131;-50
2021/07/12 11:10:29;;;;;;;9.07;8.35;;;;;;;30.47;53.43;100530.38;3573637;40;20134;-51
2021/07/12 11:13:19;;;;;;;8.88;8.23;;;;;;;30.75;53.24;100530.44;3573804;40;20138;-52
2021/07/12 11:15:46;;;;;;;10.23;9.40;;;;;;;30.05;53.95;100532.78;3573664;40;20133;-49
2021/07/12 11:18:36;;;;;;;10.23;9.40;;;;;;;30.31;54.20;100533.91;3574019;40;20041;-50
2021/07/12 11:21:10;;;;;;;10.07;9.27;;;;;;;29.88;55.45;100538.19;3573864;40;20049;-52
2021/07/12 11:23:52;;;;;;;11.23;10.18;;;;;;;28.55;58.78;100525.13;3573706;40;20057;-52
2021/07/12 11:26:29;;;;;;;9.82;9.07;;;;;;;31.36;50.91;100521.34;3573621;40;20426;-54
2021/07/12 11:29:29;;;;;;;9.50;8.88;;;;;;;32.65;48.37;100523.44;3570370;40;20075;-47
2021/07/12 11:32:02;;;;;;;8.85;8.05;;;;;;;32.90;45.65;100515.47;3571397;40;20154;-48
2021/07/12 11:34:48;;;;;;;11.38;8.55;;;;;;;35.26;39.76;100529.63;3570521;40;20139;-51